createdAt,value
2019-02-08T00:00:55.538Z,100117.91
2019-02-08T00:01:58.446Z,100107.89
2019-02-08T00:03:00.674Z,100116.61
2019-02-08T00:04:02.913Z,100111.80
2019-02-08T00:05:05.286Z,100107.51
2019-02-08T00:06:07.484Z,100115.87
2019-02-08T00:07:09.700Z,100119.98
2019-02-08T00:08:11.900Z,100109.97
2019-02-08T00:09:14.568Z,100113.88
2019-02-08T00:10:16.806Z,100109.59
2019-02-08T00:11:19.023Z,100117.38
2019-02-08T00:12:21.249Z,100117.77
2019-02-08T00:13:23.457Z,100115.56
2019-02-08T00:14:25.667Z,100115.56
2019-02-08T00:15:27.883Z,100117.77
2019-02-08T00:16:30.080Z,100117.25
2019-02-08T00:17:33.810Z,100121.67
2019-02-08T00:18:36.131Z,100126.34
2019-02-08T00:19:38.718Z,100119.07
2019-02-08T00:20:40.862Z,100118.69
2019-02-08T00:21:46.303Z,100120.89
2019-02-08T00:22:48.510Z,100122.97
2019-02-08T00:23:52.862Z,100124.66
2019-02-08T00:24:55.065Z,100119.98
2019-02-08T00:25:57.278Z,100131.68
2019-02-08T00:26:59.491Z,100120.76
2019-02-08T00:28:01.689Z,100123.74
2019-02-08T00:29:03.897Z,100129.33
2019-02-08T00:30:06.105Z,100134.53
2019-02-08T00:31:08.637Z,100129.72
2019-02-08T00:32:10.884Z,100133.23
2019-02-08T00:33:13.083Z,100132.84
2019-02-08T00:34:15.286Z,100132.45
2019-02-08T00:35:18.707Z,100139.34
2019-02-08T00:36:20.903Z,100131.93
2019-02-08T00:37:23.139Z,100136.22
2019-02-08T00:38:25.355Z,100138.42
2019-02-08T00:39:27.553Z,100152.59
2019-02-08T00:40:29.776Z,100144.79
2019-02-08T00:41:32.299Z,100143.10
2019-02-08T00:42:34.495Z,100157.53
2019-02-08T00:43:36.701Z,100151.04
2019-02-08T00:44:38.954Z,100147.53
2019-02-08T00:45:41.161Z,100143.48
2019-02-08T00:46:43.380Z,100141.80
2019-02-08T00:47:45.597Z,100148.69
2019-02-08T00:48:47.801Z,100156.88
2019-02-08T00:49:50.020Z,100157.02
2019-02-08T00:50:52.345Z,100149.98
2019-02-08T00:51:54.862Z,100149.60
2019-02-08T00:52:57.066Z,100142.58
2019-02-08T00:53:59.276Z,100149.60
2019-02-08T00:55:01.495Z,100158.70
2019-02-08T00:56:03.707Z,100154.41
2019-02-08T00:57:05.902Z,100160.39
2019-02-08T00:58:08.133Z,100157.40
2019-02-08T00:59:10.347Z,100156.09
2019-02-08T01:00:12.805Z,100162.59
2019-02-08T01:01:15.043Z,100162.20
2019-02-08T01:02:20.101Z,100152.20
2019-02-08T01:03:22.308Z,100149.73
2019-02-08T01:04:24.515Z,100140.12
2019-02-08T01:05:26.699Z,100156.09
2019-02-08T01:06:28.911Z,100157.40
2019-02-08T01:07:31.113Z,100150.52
2019-02-08T01:08:33.342Z,100156.09
2019-02-08T01:09:35.551Z,100154.41
2019-02-08T01:10:37.758Z,100154.80
2019-02-08T01:11:39.990Z,100160.39
2019-02-08T01:12:42.494Z,100154.80
2019-02-08T01:13:44.691Z,100161.16
2019-02-08T01:14:46.888Z,100163.90
2019-02-08T01:15:49.084Z,100154.41
2019-02-08T01:16:51.305Z,100166.49
2019-02-08T01:17:55.993Z,100154.41
2019-02-08T01:18:58.203Z,100170.92
2019-02-08T01:20:00.395Z,100163.90
2019-02-08T01:21:02.608Z,100167.80
2019-02-08T01:22:04.822Z,100165.20
2019-02-08T01:23:07.354Z,100182.09
2019-02-08T01:24:09.545Z,100175.98
2019-02-08T01:25:11.750Z,100174.16
2019-02-08T01:26:14.024Z,100179.49
2019-02-08T01:27:16.240Z,100182.48
2019-02-08T01:28:18.760Z,100180.41
2019-02-08T01:29:21.345Z,100192.48
2019-02-08T01:30:23.590Z,100195.09
2019-02-08T01:31:26.190Z,100186.77
2019-02-08T01:32:29.046Z,100187.67
2019-02-08T01:33:31.792Z,100179.11
2019-02-08T01:34:34.503Z,100187.81
2019-02-08T01:35:37.276Z,100187.29
2019-02-08T01:36:39.499Z,100193.79
2019-02-08T01:37:41.704Z,100186.37
2019-02-08T01:38:43.906Z,100190.14
2019-02-08T01:39:46.185Z,100179.36
2019-02-08T01:40:48.312Z,100188.84
2019-02-08T01:41:50.538Z,100193.27
2019-02-08T01:42:52.842Z,100194.95
2019-02-08T01:43:57.440Z,100199.77
2019-02-08T01:44:59.761Z,100187.29
2019-02-08T01:46:01.904Z,100188.45
2019-02-08T01:47:04.099Z,100199.63
2019-02-08T01:48:06.300Z,100191.83
2019-02-08T01:49:10.068Z,100188.45
2019-02-08T01:50:12.266Z,100197.02
2019-02-08T01:51:14.414Z,100191.96
2019-02-08T01:52:16.649Z,100200.67
2019-02-08T01:53:18.875Z,100194.56
2019-02-08T01:54:21.094Z,100198.46
2019-02-08T01:55:23.295Z,100201.06
2019-02-08T01:56:25.487Z,100187.54
2019-02-08T01:57:27.706Z,100202.22
2019-02-08T01:58:29.923Z,100214.97
2019-02-08T01:59:32.266Z,100208.33
2019-02-08T02:00:34.456Z,100207.03
2019-02-08T02:01:36.737Z,100207.03
2019-02-08T02:02:38.940Z,100205.48
2019-02-08T02:03:41.137Z,100195.09
2019-02-08T02:04:43.347Z,100207.56
2019-02-08T02:05:47.121Z,100199.23
2019-02-08T02:06:49.354Z,100202.75
2019-02-08T02:07:51.559Z,100201.45
2019-02-08T02:08:56.534Z,100204.05
2019-02-08T02:09:58.742Z,100205.88
2019-02-08T02:11:00.947Z,100214.06
2019-02-08T02:12:03.270Z,100209.25
2019-02-08T02:13:05.482Z,100215.36
2019-02-08T02:14:07.682Z,100220.03
2019-02-08T02:15:09.819Z,100210.55
2019-02-08T02:16:12.028Z,100218.34
2019-02-08T02:17:16.018Z,100217.57
2019-02-08T02:18:18.227Z,100225.37
2019-02-08T02:19:20.424Z,100227.58
2019-02-08T02:20:25.368Z,100221.47
2019-02-08T02:21:27.559Z,100224.59
2019-02-08T02:22:29.710Z,100226.14
2019-02-08T02:23:31.910Z,100228.88
2019-02-08T02:24:34.114Z,100222.24
2019-02-08T02:25:36.311Z,100225.61
2019-02-08T02:26:38.519Z,100232.25
2019-02-08T02:27:40.746Z,100219.25
2019-02-08T02:28:42.944Z,100230.42
2019-02-08T02:29:45.151Z,100230.04
2019-02-08T02:30:47.342Z,100233.94
2019-02-08T02:31:49.547Z,100239.52
2019-02-08T02:32:51.777Z,100236.54
2019-02-08T02:33:53.969Z,100244.72
2019-02-08T02:34:56.171Z,100253.58
2019-02-08T02:35:59.756Z,100237.45
2019-02-08T02:37:01.909Z,100245.64
2019-02-08T02:38:04.140Z,100249.53
2019-02-08T02:39:06.339Z,100249.53
2019-02-08T02:40:08.543Z,100247.33
2019-02-08T02:41:10.737Z,100253.44
2019-02-08T02:42:12.951Z,100257.47
2019-02-08T02:43:15.165Z,100252.13
2019-02-08T02:44:17.300Z,100263.45
2019-02-08T02:45:19.606Z,100257.72
2019-02-08T02:46:23.867Z,100261.76
2019-02-08T02:47:26.103Z,100261.37
2019-02-08T02:48:28.311Z,100261.76
2019-02-08T02:49:30.511Z,100255.65
2019-02-08T02:50:32.718Z,100262.15
2019-02-08T02:51:34.945Z,100262.92
2019-02-08T02:52:37.156Z,100251.75
2019-02-08T02:53:39.357Z,100259.16
2019-02-08T02:54:41.567Z,100256.42
2019-02-08T02:55:43.776Z,100266.05
2019-02-08T02:56:45.988Z,100266.95
2019-02-08T02:57:48.183Z,100273.06
2019-02-08T02:58:50.318Z,100266.05
2019-02-08T02:59:52.543Z,100275.00
2019-02-08T03:00:54.728Z,100275.91
2019-02-08T03:01:56.935Z,100278.52
2019-02-08T03:02:59.259Z,100267.73
2019-02-08T03:04:01.465Z,100276.44
2019-02-08T03:05:03.678Z,100275.39
2019-02-08T03:06:05.885Z,100280.59
2019-02-08T03:07:08.081Z,100279.04
2019-02-08T03:08:10.325Z,100276.83
2019-02-08T03:09:12.526Z,100290.73
2019-02-08T03:10:14.727Z,100291.66
2019-02-08T03:11:16.945Z,100286.84
2019-02-08T03:12:19.147Z,100285.16
2019-02-08T03:13:21.377Z,100284.63
2019-02-08T03:14:23.571Z,100285.54
2019-02-08T03:15:25.783Z,100291.66
2019-02-08T03:16:28.004Z,100280.34
2019-02-08T03:17:30.236Z,100283.57
2019-02-08T03:18:32.444Z,100284.09
2019-02-08T03:19:34.684Z,100286.31
2019-02-08T03:20:36.878Z,100288.52
2019-02-08T03:21:39.082Z,100291.13
2019-02-08T03:22:41.300Z,100289.30
2019-02-08T03:23:43.511Z,100287.08
2019-02-08T03:24:45.759Z,100292.81
2019-02-08T03:25:47.937Z,100292.03
2019-02-08T03:26:50.151Z,100288.14
2019-02-08T03:27:52.375Z,100301.52
2019-02-08T03:28:54.595Z,100300.22
2019-02-08T03:29:56.805Z,100293.72
2019-02-08T03:30:59.336Z,100301.91
2019-02-08T03:32:01.554Z,100301.00
2019-02-08T03:33:06.740Z,100302.68
2019-02-08T03:34:08.942Z,100294.50
2019-02-08T03:35:11.132Z,100299.69
2019-02-08T03:36:13.337Z,100295.80
2019-02-08T03:37:15.573Z,100293.97
2019-02-08T03:38:17.837Z,100299.31
2019-02-08T03:39:19.979Z,100301.00
2019-02-08T03:40:22.182Z,100304.13
2019-02-08T03:41:24.384Z,100312.69
2019-02-08T03:42:26.661Z,100309.32
2019-02-08T03:43:28.811Z,100312.30
2019-02-08T03:44:31.197Z,100306.72
2019-02-08T03:45:37.387Z,100303.98
2019-02-08T03:46:41.756Z,100322.17
2019-02-08T03:47:43.968Z,100312.30
2019-02-08T03:48:46.181Z,100306.97
2019-02-08T03:49:48.387Z,100319.58
2019-02-08T03:50:50.595Z,100307.87
2019-02-08T03:51:52.782Z,100316.98
2019-02-08T03:52:55.009Z,100313.08
2019-02-08T03:53:57.222Z,100316.59
2019-02-08T03:54:59.422Z,100316.06
2019-02-08T03:56:01.619Z,100316.45
2019-02-08T03:57:03.821Z,100320.34
2019-02-08T03:58:06.042Z,100319.81
2019-02-08T03:59:08.259Z,100330.74
2019-02-08T04:00:12.513Z,100319.81
2019-02-08T04:01:15.181Z,100328.14
2019-02-08T04:02:17.334Z,100330.74
2019-02-08T04:03:19.554Z,100326.45
2019-02-08T04:04:21.763Z,100323.86
2019-02-08T04:05:23.983Z,100327.23
2019-02-08T04:06:26.174Z,100326.84
2019-02-08T04:07:28.371Z,100335.03
2019-02-08T04:08:30.596Z,100322.03
2019-02-08T04:09:32.803Z,100327.23
2019-02-08T04:10:35.005Z,100334.64
2019-02-08T04:11:37.217Z,100331.27
2019-02-08T04:12:39.415Z,100339.07
2019-02-08T04:13:41.649Z,100339.45
2019-02-08T04:14:43.835Z,100338.92
2019-02-08T04:15:46.843Z,100339.31
2019-02-08T04:16:49.057Z,100338.02
2019-02-08T04:17:53.743Z,100348.94
2019-02-08T04:18:55.970Z,100342.83
2019-02-08T04:19:58.195Z,100345.81
2019-02-08T04:21:00.409Z,100338.40
2019-02-08T04:22:02.611Z,100351.02
2019-02-08T04:23:04.851Z,100349.18
2019-02-08T04:24:07.060Z,100342.30
2019-02-08T04:25:09.257Z,100338.40
2019-02-08T04:26:11.458Z,100338.78
2019-02-08T04:27:13.673Z,100353.08
2019-02-08T04:28:15.889Z,100345.28
2019-02-08T04:29:18.094Z,100345.67
2019-02-08T04:30:20.306Z,100347.88
2019-02-08T04:31:22.514Z,100344.90
2019-02-08T04:32:24.815Z,100347.88
2019-02-08T04:33:27.247Z,100340.09
2019-02-08T04:34:29.463Z,100346.58
2019-02-08T04:35:31.690Z,100352.31
2019-02-08T04:36:33.863Z,100346.20
2019-02-08T04:37:36.063Z,100349.95
2019-02-08T04:38:38.290Z,100353.99
2019-02-08T04:39:40.506Z,100362.17
2019-02-08T04:40:42.704Z,100350.48
2019-02-08T04:41:44.903Z,100357.89
2019-02-08T04:42:47.111Z,100354.77
2019-02-08T04:43:49.344Z,100359.05
2019-02-08T04:44:52.668Z,100362.17
2019-02-08T04:45:54.882Z,100356.45
2019-02-08T04:46:57.086Z,100362.17
2019-02-08T04:47:59.301Z,100355.15
2019-02-08T04:49:01.525Z,100363.48
2019-02-08T04:50:03.726Z,100353.32
2019-02-08T04:51:06.021Z,100362.77
2019-02-08T04:52:08.230Z,100367.62
2019-02-08T04:53:10.434Z,100356.84
2019-02-08T04:54:12.729Z,100356.06
2019-02-08T04:55:14.944Z,100361.65
2019-02-08T04:56:17.152Z,100359.82
2019-02-08T04:57:19.356Z,100365.16
2019-02-08T04:58:21.565Z,100371.66
2019-02-08T04:59:23.791Z,100375.95
2019-02-08T05:00:26.010Z,100367.23
2019-02-08T05:01:28.210Z,100372.43
2019-02-08T05:02:30.352Z,100368.92
2019-02-08T05:03:32.583Z,100371.52
2019-02-08T05:04:34.813Z,100362.42
2019-02-08T05:05:37.010Z,100365.75
2019-02-08T05:06:39.371Z,100367.05
2019-02-08T05:07:41.590Z,100367.62
2019-02-08T05:08:43.796Z,100365.93
2019-02-08T05:09:46.200Z,100371.86
2019-02-08T05:10:51.568Z,100366.31
2019-02-08T05:11:53.775Z,100370.56
2019-02-08T05:12:55.980Z,100371.86
2019-02-08T05:13:58.189Z,100370.95
2019-02-08T05:15:00.404Z,100371.86
2019-02-08T05:16:02.599Z,100367.05
2019-02-08T05:17:04.806Z,100365.93
2019-02-08T05:18:07.018Z,100361.12
2019-02-08T05:19:09.247Z,100367.62
2019-02-08T05:20:11.463Z,100382.83
2019-02-08T05:21:13.671Z,100365.02
2019-02-08T05:22:15.898Z,100370.56
2019-02-08T05:23:18.112Z,100372.81
2019-02-08T05:24:20.434Z,100369.83
2019-02-08T05:25:22.649Z,100370.56
2019-02-08T05:26:24.884Z,100375.41
2019-02-08T05:27:27.104Z,100381.67
2019-02-08T05:28:29.299Z,100381.81
2019-02-08T05:29:31.540Z,100367.52
2019-02-08T05:30:33.748Z,100384.41
2019-02-08T05:31:39.128Z,100373.63
2019-02-08T05:32:41.361Z,100376.23
2019-02-08T05:33:43.560Z,100381.58
2019-02-08T05:34:45.805Z,100378.59
2019-02-08T05:35:48.008Z,100375.46
2019-02-08T05:36:50.202Z,100375.98
2019-02-08T05:37:52.400Z,100378.59
2019-02-08T05:38:54.658Z,100382.87
2019-02-08T05:39:56.898Z,100381.72
2019-02-08T05:40:59.107Z,100380.41
2019-02-08T05:42:01.394Z,100379.50
2019-02-08T05:43:03.535Z,100385.09
2019-02-08T05:44:05.744Z,100379.12
2019-02-08T05:45:07.947Z,100370.94
2019-02-08T05:46:10.152Z,100384.84
2019-02-08T05:47:12.454Z,100376.66
2019-02-08T05:48:14.666Z,100387.06
2019-02-08T05:49:16.903Z,100384.46
2019-02-08T05:50:19.110Z,100387.45
2019-02-08T05:51:21.316Z,100387.06
2019-02-08T05:52:23.527Z,100386.67
2019-02-08T05:53:25.729Z,100385.38
2019-02-08T05:54:27.986Z,100389.80
2019-02-08T05:55:31.899Z,100382.92
2019-02-08T05:56:34.113Z,100383.30
2019-02-08T05:57:36.326Z,100391.10
2019-02-08T05:58:38.516Z,100388.50
2019-02-08T05:59:40.723Z,100392.02
2019-02-08T06:00:47.120Z,100390.33
2019-02-08T06:01:49.338Z,100398.12
2019-02-08T06:02:51.711Z,100393.31
2019-02-08T06:03:53.980Z,100397.22
2019-02-08T06:04:56.213Z,100402.03
2019-02-08T06:05:58.617Z,100397.98
2019-02-08T06:07:00.855Z,100399.67
2019-02-08T06:08:03.145Z,100395.39
2019-02-08T06:09:05.353Z,100399.67
2019-02-08T06:10:07.566Z,100406.17
2019-02-08T06:11:09.697Z,100400.44
2019-02-08T06:12:11.905Z,100403.95
2019-02-08T06:13:14.122Z,100402.27
2019-02-08T06:14:16.349Z,100404.88
2019-02-08T06:15:18.626Z,100390.58
2019-02-08T06:16:20.819Z,100403.04
2019-02-08T06:17:23.023Z,100400.97
2019-02-08T06:18:25.236Z,100399.67
2019-02-08T06:19:27.464Z,100408.77
2019-02-08T06:20:29.710Z,100404.48
2019-02-08T06:21:31.873Z,100412.67
2019-02-08T06:22:34.095Z,100402.66
2019-02-08T06:23:36.310Z,100407.47
2019-02-08T06:24:38.544Z,100412.81
2019-02-08T06:25:40.747Z,100405.92
2019-02-08T06:26:42.974Z,100414.64
2019-02-08T06:27:45.222Z,100413.34
2019-02-08T06:28:47.429Z,100411.31
2019-02-08T06:29:49.659Z,100416.51
2019-02-08T06:30:51.896Z,100419.45
2019-02-08T06:31:54.183Z,100418.72
2019-02-08T06:32:56.500Z,100422.23
2019-02-08T06:33:58.697Z,100423.54
2019-02-08T06:35:00.925Z,100421.85
2019-02-08T06:36:03.158Z,100424.66
2019-02-08T06:37:05.411Z,100423.00
2019-02-08T06:38:07.625Z,100426.91
2019-02-08T06:39:09.922Z,100425.22
2019-02-08T06:40:12.156Z,100426.14
2019-02-08T06:41:14.369Z,100423.92
2019-02-08T06:42:16.721Z,100422.77
2019-02-08T06:43:18.942Z,100430.56
2019-02-08T06:44:21.161Z,100431.09
2019-02-08T06:45:23.393Z,100436.68
2019-02-08T06:46:25.596Z,100431.09
2019-02-08T06:47:27.791Z,100436.83
2019-02-08T06:48:30.005Z,100429.27
2019-02-08T06:49:32.321Z,100432.39
2019-02-08T06:50:34.535Z,100432.78
2019-02-08T06:51:36.761Z,100432.78
2019-02-08T06:52:38.955Z,100430.18
2019-02-08T06:53:41.153Z,100439.81
2019-02-08T06:54:43.402Z,100440.58
2019-02-08T06:55:45.625Z,100438.51
2019-02-08T06:57:06.801Z,100439.95
2019-02-08T06:58:40.230Z,100440.87
2019-02-08T07:00:01.419Z,100445.30
2019-02-08T07:01:37.837Z,100444.38
2019-02-08T07:03:01.770Z,100446.06
2019-02-08T07:04:27.929Z,100448.66
2019-02-08T07:05:51.909Z,100453.09
2019-02-08T07:07:00.071Z,100451.80
2019-02-08T07:08:19.886Z,100452.18
2019-02-08T07:09:44.059Z,100457.38
2019-02-08T07:11:01.357Z,100455.17
2019-02-08T07:12:21.415Z,100453.87
2019-02-08T07:13:42.566Z,100457.91
2019-02-08T07:15:06.457Z,100451.80
2019-02-08T07:17:50.930Z,100454.02
2019-02-08T07:19:15.336Z,100447.75
2019-02-08T07:20:39.406Z,100458.30
2019-02-08T07:21:52.903Z,100450.50
2019-02-08T07:23:16.875Z,100452.72
2019-02-08T07:24:38.015Z,100452.72
2019-02-08T07:26:08.570Z,100454.40
2019-02-08T07:27:25.101Z,100452.18
2019-02-08T07:28:52.185Z,100456.23
2019-02-08T07:30:22.508Z,100459.74
2019-02-08T07:31:46.702Z,100454.40
2019-02-08T07:33:10.707Z,100456.76
2019-02-08T07:34:18.910Z,100459.21
2019-02-08T07:35:45.941Z,100461.05
2019-02-08T07:37:17.319Z,100462.52
2019-02-08T07:38:37.069Z,100462.73
2019-02-08T07:39:51.298Z,100463.64
2019-02-08T07:41:11.097Z,100461.81
2019-02-08T07:42:24.400Z,100466.63
2019-02-08T07:43:47.547Z,100461.05
2019-02-08T07:45:06.720Z,100459.21
2019-02-08T07:46:16.866Z,100462.73
2019-02-08T07:47:38.059Z,100463.64
2019-02-08T07:49:05.292Z,100463.64
2019-02-08T07:50:21.172Z,100455.84
2019-02-08T07:51:54.245Z,100460.13
2019-02-08T07:53:18.452Z,100453.63
2019-02-08T07:54:48.528Z,100454.92
2019-02-08T07:56:08.690Z,100454.16
2019-02-08T07:57:28.842Z,100451.94
2019-02-08T07:59:08.218Z,100448.95
2019-02-08T08:00:38.347Z,100453.42
2019-02-08T08:01:50.196Z,100457.32
2019-02-08T08:03:29.857Z,100460.84
2019-02-08T08:04:54.062Z,100449.73
2019-02-08T08:06:14.113Z,100455.45
2019-02-08T08:07:47.355Z,100456.41
2019-02-08T08:09:06.897Z,100456.41
2019-02-08T08:10:14.532Z,100459.01
2019-02-08T08:11:47.876Z,100461.95
2019-02-08T08:13:07.808Z,100459.92
2019-02-08T08:14:41.106Z,100461.61
2019-02-08T08:16:00.950Z,100467.72
2019-02-08T08:17:12.422Z,100459.92
2019-02-08T08:18:46.444Z,100456.16
2019-02-08T08:20:03.751Z,100452.27
2019-02-08T08:21:37.020Z,100457.08
2019-02-08T08:22:58.169Z,100459.33
2019-02-08T08:24:25.130Z,100459.68
2019-02-08T08:25:49.330Z,100460.98
2019-02-08T08:27:13.809Z,100453.80
2019-02-08T08:28:34.514Z,100458.63
2019-02-08T08:29:47.561Z,100463.82
2019-02-08T08:31:24.096Z,100464.35
2019-02-08T08:32:29.209Z,100458.23
2019-02-08T08:33:31.407Z,100459.01
2019-02-08T08:34:33.614Z,100458.23
2019-02-08T08:35:35.841Z,100463.44
2019-02-08T08:36:38.059Z,100463.44
2019-02-08T08:37:40.271Z,100454.34
2019-02-08T08:38:42.490Z,100460.45
2019-02-08T08:39:44.707Z,100457.85
2019-02-08T08:40:46.932Z,100457.32
2019-02-08T08:41:49.138Z,100457.32
2019-02-08T08:42:51.287Z,100456.94
2019-02-08T08:43:53.549Z,100458.63
2019-02-08T08:44:55.766Z,100454.87
2019-02-08T08:45:58.593Z,100448.75
2019-02-08T08:47:00.795Z,100450.05
2019-02-08T08:48:03.017Z,100452.65
2019-02-08T08:49:05.237Z,100445.23
2019-02-08T08:50:07.434Z,100446.15
2019-02-08T08:51:09.671Z,100444.08
2019-02-08T08:52:11.871Z,100445.77
2019-02-08T08:53:14.094Z,100448.36
2019-02-08T08:54:16.307Z,100443.55
2019-02-08T08:55:18.513Z,100446.54
2019-02-08T08:56:20.720Z,100443.55
2019-02-08T08:57:22.944Z,100437.05
2019-02-08T08:58:25.162Z,100448.22
2019-02-08T08:59:29.228Z,100439.51
2019-02-08T09:00:31.241Z,100429.45
2019-02-08T09:01:33.566Z,100442.11
2019-02-08T09:02:35.786Z,100443.94
2019-02-08T09:03:38.000Z,100439.12
2019-02-08T09:04:41.825Z,100439.12
2019-02-08T09:05:44.134Z,100437.44
2019-02-08T09:06:46.378Z,100426.86
2019-02-08T09:07:48.602Z,100437.64
2019-02-08T09:08:50.824Z,100433.92
2019-02-08T09:09:53.032Z,100432.44
2019-02-08T09:10:55.234Z,100441.16
2019-02-08T09:11:57.397Z,100426.33
2019-02-08T09:12:59.542Z,100434.30
2019-02-08T09:14:01.752Z,100438.20
2019-02-08T09:15:03.953Z,100429.11
2019-02-08T09:16:06.167Z,100439.51
2019-02-08T09:17:08.383Z,100437.82
2019-02-08T09:18:10.599Z,100437.44
2019-02-08T09:19:12.821Z,100440.95
2019-02-08T09:20:15.027Z,100430.94
2019-02-08T09:21:17.267Z,100439.12
2019-02-08T09:22:19.564Z,100433.92
2019-02-08T09:23:21.782Z,100435.22
2019-02-08T09:24:23.982Z,100435.61
2019-02-08T09:25:26.198Z,100431.32
2019-02-08T09:26:28.435Z,100430.76
2019-02-08T09:27:30.659Z,100431.53
2019-02-08T09:28:32.861Z,100425.03
2019-02-08T09:29:35.073Z,100423.73
2019-02-08T09:30:37.309Z,100428.54
2019-02-08T09:31:39.547Z,100427.80
2019-02-08T09:32:41.751Z,100425.94
2019-02-08T09:33:44.087Z,100426.50
2019-02-08T09:34:46.305Z,100427.80
2019-02-08T09:35:48.568Z,100425.56
2019-02-08T09:36:50.783Z,100423.91
2019-02-08T09:37:54.797Z,100427.24
2019-02-08T09:38:56.997Z,100426.86
2019-02-08T09:39:59.207Z,100428.16
2019-02-08T09:41:01.422Z,100419.83
2019-02-08T09:42:03.639Z,100419.44
2019-02-08T09:43:05.876Z,100420.21
2019-02-08T09:44:08.079Z,100420.74
2019-02-08T09:45:10.294Z,100418.00
2019-02-08T09:46:12.495Z,100418.14
2019-02-08T09:47:14.710Z,100415.02
2019-02-08T09:48:16.959Z,100419.44
2019-02-08T09:49:19.169Z,100417.61
2019-02-08T09:50:21.371Z,100422.05
2019-02-08T09:51:23.581Z,100417.23
2019-02-08T09:52:25.887Z,100419.30
2019-02-08T09:53:28.105Z,100419.30
2019-02-08T09:54:30.314Z,100418.91
2019-02-08T09:55:32.531Z,100415.92
2019-02-08T09:56:34.734Z,100422.05
2019-02-08T09:57:36.938Z,100422.42
2019-02-08T09:58:39.159Z,100418.53
2019-02-08T09:59:41.381Z,100419.83
2019-02-08T10:00:43.591Z,100421.52
2019-02-08T10:01:45.807Z,100417.23
2019-02-08T10:02:48.040Z,100422.05
2019-02-08T10:03:50.275Z,100421.66
2019-02-08T10:04:52.495Z,100418.91
2019-02-08T10:05:54.743Z,100416.70
2019-02-08T10:06:56.952Z,100417.08
2019-02-08T10:07:59.151Z,100409.67
2019-02-08T10:09:01.375Z,100415.40
2019-02-08T10:10:03.575Z,100411.88
2019-02-08T10:11:05.789Z,100412.03
2019-02-08T10:12:07.991Z,100417.61
2019-02-08T10:13:10.197Z,100412.03
2019-02-08T10:14:14.231Z,100413.71
2019-02-08T10:15:16.430Z,100413.86
2019-02-08T10:16:18.656Z,100412.94
2019-02-08T10:17:20.863Z,100403.45
2019-02-08T10:18:23.150Z,100409.61
2019-02-08T10:19:25.386Z,100409.61
2019-02-08T10:20:27.601Z,100404.41
2019-02-08T10:21:29.797Z,100401.42
2019-02-08T10:22:32.012Z,100400.12
2019-02-08T10:23:34.225Z,100395.30
2019-02-08T10:24:36.468Z,100400.12
2019-02-08T10:25:38.672Z,100399.87
2019-02-08T10:26:40.886Z,100400.65
2019-02-08T10:27:43.078Z,100405.08
2019-02-08T10:28:45.286Z,100405.47
2019-02-08T10:29:47.468Z,100404.55
2019-02-08T10:30:49.753Z,100398.82
2019-02-08T10:31:51.967Z,100409.22
2019-02-08T10:32:54.500Z,100401.80
2019-02-08T10:33:56.726Z,100407.00
2019-02-08T10:34:58.956Z,100402.72
2019-02-08T10:36:02.562Z,100393.05
2019-02-08T10:37:04.909Z,100399.20
2019-02-08T10:38:07.120Z,100394.92
2019-02-08T10:39:09.354Z,100394.01
2019-02-08T10:40:11.582Z,100398.44
2019-02-08T10:41:13.802Z,100395.66
2019-02-08T10:42:16.017Z,100404.02
2019-02-08T10:43:18.230Z,100389.16
2019-02-08T10:44:20.438Z,100395.83
2019-02-08T10:45:22.678Z,100389.72
2019-02-08T10:46:24.888Z,100391.02
2019-02-08T10:47:27.092Z,100388.56
2019-02-08T10:48:29.306Z,100385.05
2019-02-08T10:49:31.537Z,100378.94
2019-02-08T10:50:36.546Z,100382.06
2019-02-08T10:51:38.749Z,100378.02
2019-02-08T10:52:40.964Z,100378.02
2019-02-08T10:53:43.185Z,100374.50
2019-02-08T10:54:45.381Z,100377.11
2019-02-08T10:55:47.724Z,100383.61
2019-02-08T10:56:50.010Z,100379.32
2019-02-08T10:57:52.225Z,100382.30
2019-02-08T10:58:54.483Z,100378.41
2019-02-08T10:59:58.470Z,100382.66
2019-02-08T11:01:00.699Z,100380.05
2019-02-08T11:02:03.009Z,100381.36
2019-02-08T11:03:05.210Z,100381.00
2019-02-08T11:04:07.420Z,100372.26
2019-02-08T11:05:09.727Z,100380.44
2019-02-08T11:06:11.942Z,100375.23
2019-02-08T11:07:16.098Z,100374.33
2019-02-08T11:08:18.021Z,100375.63
2019-02-08T11:09:20.440Z,100376.02
2019-02-08T11:10:22.656Z,100374.33
2019-02-08T11:11:24.891Z,100363.54
2019-02-08T11:12:27.110Z,100366.70
2019-02-08T11:13:29.329Z,100358.13
2019-02-08T11:14:31.533Z,100365.94
2019-02-08T11:15:33.740Z,100366.84
2019-02-08T11:16:35.967Z,100358.13
2019-02-08T11:17:38.171Z,100358.52
2019-02-08T11:18:40.384Z,100354.62
2019-02-08T11:19:42.598Z,100350.72
2019-02-08T11:20:44.816Z,100360.34
2019-02-08T11:21:47.168Z,100352.16
2019-02-08T11:22:49.376Z,100357.16
2019-02-08T11:23:51.581Z,100346.58
2019-02-08T11:24:53.796Z,100347.34
2019-02-08T11:25:55.995Z,100348.27
2019-02-08T11:26:58.217Z,100339.55
2019-02-08T11:28:00.410Z,100347.73
2019-02-08T11:29:02.610Z,100342.92
2019-02-08T11:30:04.816Z,100344.61
2019-02-08T11:31:07.015Z,100345.91
2019-02-08T11:32:09.275Z,100341.62
2019-02-08T11:33:11.486Z,100340.84
2019-02-08T11:34:13.690Z,100340.31
2019-02-08T11:35:17.496Z,100336.80
2019-02-08T11:36:19.695Z,100338.11
2019-02-08T11:37:25.144Z,100338.45
2019-02-08T11:38:27.332Z,100336.80
2019-02-08T11:39:29.535Z,100333.44
2019-02-08T11:40:31.752Z,100325.84
2019-02-08T11:41:33.956Z,100333.25
2019-02-08T11:42:36.211Z,100325.84
2019-02-08T11:43:38.416Z,100326.76
2019-02-08T11:44:40.604Z,100326.41
2019-02-08T11:45:42.799Z,100324.16
2019-02-08T11:46:45.106Z,100322.50
2019-02-08T11:47:47.365Z,100335.50
2019-02-08T11:48:49.620Z,100323.80
2019-02-08T11:49:51.825Z,100328.05
2019-02-08T11:50:54.047Z,100321.55
2019-02-08T11:51:56.251Z,100319.52
2019-02-08T11:52:58.479Z,100320.81
2019-02-08T11:54:00.857Z,100317.30
2019-02-08T11:55:04.922Z,100313.41
2019-02-08T11:56:06.855Z,100315.62
2019-02-08T11:57:10.438Z,100310.42
2019-02-08T11:58:12.635Z,100312.25
2019-02-08T11:59:14.835Z,100314.46
2019-02-08T12:00:17.055Z,100308.73
2019-02-08T12:01:19.267Z,100312.63
2019-02-08T12:02:21.485Z,100311.72
2019-02-08T12:03:23.719Z,100308.73
2019-02-08T12:04:28.834Z,100308.34
2019-02-08T12:05:31.057Z,100304.83
2019-02-08T12:06:33.385Z,100298.72
2019-02-08T12:07:35.600Z,100302.23
2019-02-08T12:08:37.851Z,100300.76
2019-02-08T12:09:40.066Z,100303.14
2019-02-08T12:10:42.289Z,100302.63
2019-02-08T12:11:44.505Z,100300.02
2019-02-08T12:12:46.713Z,100300.93
2019-02-08T12:13:50.045Z,100293.13
2019-02-08T12:14:55.028Z,100288.84
2019-02-08T12:15:57.232Z,100288.70
2019-02-08T12:16:59.446Z,100287.75